sensor_id;sensor_type;location;lat;lon;timestamp;P1;durP1;ratioP1;P2;durP2;ratioP2
10230;SDS011;62604;49.432;8.680;2024-02-28T00:02:04;11.33;;;8.10;;
10230;SDS011;62604;49.432;8.680;2024-02-28T00:04:31;11.37;;;6.97;;
10230;SDS011;62604;49.432;8.680;2024-02-28T00:06:58;11.90;;;6.97;;
10230;SDS011;62604;49.432;8.680;2024-02-28T00:09:25;13.30;;;7.33;;
10230;SDS011;62604;49.432;8.680;2024-02-28T00:11:53;10.67;;;6.23;;
10230;SDS011;62604;49.432;8.680;2024-02-28T00:14:21;10.50;;;6.73;;
10230;SDS011;62604;49.432;8.680;2024-02-28T00:16:48;11.33;;;7.27;;
10230;SDS011;62604;49.432;8.680;2024-02-28T00:19:15;9.60;;;6.00;;
10230;SDS011;62604;49.432;8.680;2024-02-28T00:21:43;7.83;;;5.90;;
10230;SDS011;62604;49.432;8.680;2024-02-28T00:24:10;7.20;;;5.00;;
10230;SDS011;62604;49.432;8.680;2024-02-28T00:26:40;7.77;;;5.60;;
10230;SDS011;62604;49.432;8.680;2024-02-28T00:29:07;8.03;;;5.07;;
10230;SDS011;62604;49.432;8.680;2024-02-28T00:31:36;7.57;;;5.07;;
10230;SDS011;62604;49.432;8.680;2024-02-28T00:34:03;7.07;;;5.17;;
10230;SDS011;62604;49.432;8.680;2024-02-28T00:36:31;8.17;;;5.50;;
10230;SDS011;62604;49.432;8.680;2024-02-28T00:38:58;8.13;;;5.93;;
10230;SDS011;62604;49.432;8.680;2024-02-28T00:41:25;8.90;;;5.20;;
10230;SDS011;62604;49.432;8.680;2024-02-28T00:43:52;9.90;;;5.00;;
10230;SDS011;62604;49.432;8.680;2024-02-28T00:46:19;8.43;;;5.53;;
10230;SDS011;62604;49.432;8.680;2024-02-28T00:48:48;8.33;;;5.17;;
10230;SDS011;62604;49.432;8.680;2024-02-28T00:51:15;7.87;;;5.60;;
10230;SDS011;62604;49.432;8.680;2024-02-28T00:53:42;8.53;;;5.63;;
10230;SDS011;62604;49.432;8.680;2024-02-28T00:56:09;5.73;;;4.97;;
10230;SDS011;62604;49.432;8.680;2024-02-28T00:58:36;7.40;;;5.03;;
10230;SDS011;62604;49.432;8.680;2024-02-28T01:01:03;8.27;;;5.80;;
10230;SDS011;62604;49.432;8.680;2024-02-28T01:03:31;12.27;;;6.77;;
10230;SDS011;62604;49.432;8.680;2024-02-28T01:05:59;9.37;;;5.93;;
10230;SDS011;62604;49.432;8.680;2024-02-28T01:08:28;10.33;;;5.83;;
10230;SDS011;62604;49.432;8.680;2024-02-28T01:10:56;9.57;;;5.50;;
10230;SDS011;62604;49.432;8.680;2024-02-28T01:13:24;8.23;;;5.63;;
10230;SDS011;62604;49.432;8.680;2024-02-28T01:15:51;6.60;;;5.20;;
10230;SDS011;62604;49.432;8.680;2024-02-28T01:18:19;9.03;;;6.03;;
10230;SDS011;62604;49.432;8.680;2024-02-28T01:20:46;10.20;;;6.50;;
10230;SDS011;62604;49.432;8.680;2024-02-28T01:23:14;9.30;;;6.53;;
10230;SDS011;62604;49.432;8.680;2024-02-28T01:25:41;11.67;;;7.73;;
10230;SDS011;62604;49.432;8.680;2024-02-28T01:28:08;9.53;;;6.37;;
10230;SDS011;62604;49.432;8.680;2024-02-28T01:30:35;12.23;;;6.77;;
10230;SDS011;62604;49.432;8.680;2024-02-28T01:33:03;9.00;;;6.27;;
10230;SDS011;62604;49.432;8.680;2024-02-28T01:35:30;11.20;;;6.73;;
10230;SDS011;62604;49.432;8.680;2024-02-28T01:37:57;11.33;;;6.57;;
10230;SDS011;62604;49.432;8.680;2024-02-28T01:40:26;11.70;;;7.77;;
10230;SDS011;62604;49.432;8.680;2024-02-28T01:42:53;10.33;;;7.70;;
10230;SDS011;62604;49.432;8.680;2024-02-28T01:45:20;10.93;;;7.80;;
10230;SDS011;62604;49.432;8.680;2024-02-28T01:47:51;13.60;;;8.63;;
10230;SDS011;62604;49.432;8.680;2024-02-28T01:50:18;10.80;;;8.07;;
10230;SDS011;62604;49.432;8.680;2024-02-28T01:52:46;11.73;;;7.27;;
10230;SDS011;62604;49.432;8.680;2024-02-28T01:55:12;11.60;;;6.57;;
10230;SDS011;62604;49.432;8.680;2024-02-28T01:57:40;17.60;;;8.20;;
10230;SDS011;62604;49.432;8.680;2024-02-28T02:00:08;11.97;;;7.77;;
10230;SDS011;62604;49.432;8.680;2024-02-28T02:02:37;12.27;;;6.83;;
10230;SDS011;62604;49.432;8.680;2024-02-28T02:05:04;14.60;;;7.93;;
10230;SDS011;62604;49.432;8.680;2024-02-28T02:07:32;13.20;;;7.70;;
10230;SDS011;62604;49.432;8.680;2024-02-28T02:10:00;12.10;;;7.97;;
10230;SDS011;62604;49.432;8.680;2024-02-28T02:12:27;12.40;;;7.93;;
10230;SDS011;62604;49.432;8.680;2024-02-28T02:14:56;13.90;;;7.70;;
10230;SDS011;62604;49.432;8.680;2024-02-28T02:17:23;14.10;;;7.90;;
10230;SDS011;62604;49.432;8.680;2024-02-28T02:19:50;15.07;;;8.53;;
10230;SDS011;62604;49.432;8.680;2024-02-28T02:22:17;11.53;;;7.03;;
10230;SDS011;62604;49.432;8.680;2024-02-28T02:24:48;11.23;;;7.60;;
10230;SDS011;62604;49.432;8.680;2024-02-28T02:27:15;11.47;;;7.70;;
10230;SDS011;62604;49.432;8.680;2024-02-28T02:29:42;14.10;;;8.23;;
10230;SDS011;62604;49.432;8.680;2024-02-28T02:32:09;14.47;;;8.40;;
10230;SDS011;62604;49.432;8.680;2024-02-28T02:34:36;11.80;;;7.40;;
10230;SDS011;62604;49.432;8.680;2024-02-28T02:37:03;11.27;;;7.30;;
10230;SDS011;62604;49.432;8.680;2024-02-28T02:39:33;9.60;;;6.90;;
10230;SDS011;62604;49.432;8.680;2024-02-28T02:42:02;11.07;;;7.17;;
10230;SDS011;62604;49.432;8.680;2024-02-28T02:44:29;13.30;;;7.73;;
10230;SDS011;62604;49.432;8.680;2024-02-28T02:46:56;14.77;;;7.67;;
10230;SDS011;62604;49.432;8.680;2024-02-28T02:49:23;12.50;;;7.30;;
10230;SDS011;62604;49.432;8.680;2024-02-28T02:51:50;9.37;;;6.73;;
10230;SDS011;62604;49.432;8.680;2024-02-28T02:54:17;14.07;;;6.90;;
10230;SDS011;62604;49.432;8.680;2024-02-28T02:56:44;12.23;;;7.27;;
10230;SDS011;62604;49.432;8.680;2024-02-28T02:59:13;11.77;;;7.27;;
10230;SDS011;62604;49.432;8.680;2024-02-28T03:01:40;13.43;;;7.70;;
10230;SDS011;62604;49.432;8.680;2024-02-28T03:04:07;10.50;;;7.37;;
10230;SDS011;62604;49.432;8.680;2024-02-28T03:06:34;11.60;;;7.70;;
10230;SDS011;62604;49.432;8.680;2024-02-28T03:09:01;12.60;;;7.60;;
10230;SDS011;62604;49.432;8.680;2024-02-28T03:11:28;11.80;;;7.67;;
10230;SDS011;62604;49.432;8.680;2024-02-28T03:13:55;13.03;;;7.73;;
10230;SDS011;62604;49.432;8.680;2024-02-28T03:16:24;11.73;;;7.63;;
10230;SDS011;62604;49.432;8.680;2024-02-28T03:18:51;11.93;;;6.80;;
10230;SDS011;62604;49.432;8.680;2024-02-28T03:21:18;12.07;;;7.10;;
10230;SDS011;62604;49.432;8.680;2024-02-28T03:23:46;12.53;;;6.83;;
10230;SDS011;62604;49.432;8.680;2024-02-28T03:26:13;10.00;;;7.23;;
10230;SDS011;62604;49.432;8.680;2024-02-28T03:28:41;10.33;;;6.47;;
10230;SDS011;62604;49.432;8.680;2024-02-28T03:31:08;10.70;;;7.67;;
10230;SDS011;62604;49.432;8.680;2024-02-28T03:33:36;13.37;;;8.20;;
10230;SDS011;62604;49.432;8.680;2024-02-28T03:36:03;16.23;;;9.90;;
10230;SDS011;62604;49.432;8.680;2024-02-28T03:38:31;16.67;;;8.43;;
10230;SDS011;62604;49.432;8.680;2024-02-28T03:40:58;17.97;;;9.70;;
10230;SDS011;62604;49.432;8.680;2024-02-28T03:43:25;18.83;;;9.30;;
10230;SDS011;62604;49.432;8.680;2024-02-28T03:45:52;13.00;;;8.97;;
10230;SDS011;62604;49.432;8.680;2024-02-28T03:48:19;15.93;;;9.20;;
10230;SDS011;62604;49.432;8.680;2024-02-28T03:50:48;13.53;;;8.60;;
10230;SDS011;62604;49.432;8.680;2024-02-28T03:53:15;19.77;;;9.47;;
10230;SDS011;62604;49.432;8.680;2024-02-28T03:55:43;14.27;;;7.70;;
10230;SDS011;62604;49.432;8.680;2024-02-28T03:58:10;16.23;;;9.07;;
10230;SDS011;62604;49.432;8.680;2024-02-28T04:00:37;18.13;;;9.43;;
10230;SDS011;62604;49.432;8.680;2024-02-28T04:03:05;15.07;;;9.80;;
10230;SDS011;62604;49.432;8.680;2024-02-28T04:05:32;17.30;;;10.50;;
10230;SDS011;62604;49.432;8.680;2024-02-28T04:08:00;18.27;;;9.40;;
10230;SDS011;62604;49.432;8.680;2024-02-28T04:10:27;14.13;;;9.37;;
10230;SDS011;62604;49.432;8.680;2024-02-28T04:12:54;17.50;;;11.13;;
10230;SDS011;62604;49.432;8.680;2024-02-28T04:15:21;20.47;;;11.30;;
10230;SDS011;62604;49.432;8.680;2024-02-28T04:17:51;20.30;;;10.00;;
10230;SDS011;62604;49.432;8.680;2024-02-28T04:20:18;15.67;;;9.20;;
10230;SDS011;62604;49.432;8.680;2024-02-28T04:22:45;12.87;;;9.23;;
10230;SDS011;62604;49.432;8.680;2024-02-28T04:25:13;13.87;;;8.83;;
10230;SDS011;62604;49.432;8.680;2024-02-28T04:27:40;18.17;;;10.97;;
10230;SDS011;62604;49.432;8.680;2024-02-28T04:30:08;17.27;;;10.00;;
10230;SDS011;62604;49.432;8.680;2024-02-28T04:32:36;18.03;;;10.33;;
10230;SDS011;62604;49.432;8.680;2024-02-28T04:35:03;18.97;;;9.57;;
10230;SDS011;62604;49.432;8.680;2024-02-28T04:37:31;15.63;;;9.37;;
10230;SDS011;62604;49.432;8.680;2024-02-28T04:40:00;18.00;;;10.80;;
10230;SDS011;62604;49.432;8.680;2024-02-28T04:42:28;17.53;;;9.93;;
10230;SDS011;62604;49.432;8.680;2024-02-28T04:44:55;14.80;;;9.63;;
10230;SDS011;62604;49.432;8.680;2024-02-28T04:47:22;20.50;;;9.57;;
10230;SDS011;62604;49.432;8.680;2024-02-28T04:49:49;15.63;;;9.33;;
10230;SDS011;62604;49.432;8.680;2024-02-28T04:52:16;17.37;;;9.90;;
10230;SDS011;62604;49.432;8.680;2024-02-28T04:54:43;16.27;;;9.30;;
10230;SDS011;62604;49.432;8.680;2024-02-28T04:57:10;19.97;;;10.40;;
10230;SDS011;62604;49.432;8.680;2024-02-28T04:59:39;15.10;;;10.00;;
10230;SDS011;62604;49.432;8.680;2024-02-28T05:02:07;15.80;;;8.80;;
10230;SDS011;62604;49.432;8.680;2024-02-28T05:04:34;17.73;;;9.80;;
10230;SDS011;62604;49.432;8.680;2024-02-28T05:07:01;16.23;;;10.90;;
10230;SDS011;62604;49.432;8.680;2024-02-28T05:09:28;18.60;;;11.13;;
10230;SDS011;62604;49.432;8.680;2024-02-28T05:11:55;19.77;;;10.33;;
10230;SDS011;62604;49.432;8.680;2024-02-28T05:14:23;16.87;;;10.17;;
10230;SDS011;62604;49.432;8.680;2024-02-28T05:16:52;18.40;;;10.50;;
10230;SDS011;62604;49.432;8.680;2024-02-28T05:19:19;18.03;;;9.70;;
10230;SDS011;62604;49.432;8.680;2024-02-28T05:21:46;13.57;;;9.00;;
10230;SDS011;62604;49.432;8.680;2024-02-28T05:24:15;19.00;;;9.23;;
10230;SDS011;62604;49.432;8.680;2024-02-28T05:26:43;17.23;;;9.77;;
10230;SDS011;62604;49.432;8.680;2024-02-28T05:29:10;14.57;;;9.33;;
10230;SDS011;62604;49.432;8.680;2024-02-28T05:31:38;21.23;;;10.80;;
10230;SDS011;62604;49.432;8.680;2024-02-28T05:34:15;15.97;;;9.67;;
10230;SDS011;62604;49.432;8.680;2024-02-28T05:36:46;19.83;;;10.33;;
10230;SDS011;62604;49.432;8.680;2024-02-28T05:39:18;18.50;;;10.60;;
10230;SDS011;62604;49.432;8.680;2024-02-28T05:41:47;18.23;;;10.57;;
10230;SDS011;62604;49.432;8.680;2024-02-28T05:44:19;18.40;;;10.33;;
10230;SDS011;62604;49.432;8.680;2024-02-28T05:46:56;18.80;;;10.13;;
10230;SDS011;62604;49.432;8.680;2024-02-28T05:49:32;17.80;;;10.60;;
10230;SDS011;62604;49.432;8.680;2024-02-28T05:52:04;19.30;;;10.63;;
10230;SDS011;62604;49.432;8.680;2024-02-28T05:54:32;19.37;;;10.80;;
10230;SDS011;62604;49.432;8.680;2024-02-28T05:57:00;17.87;;;10.33;;
10230;SDS011;62604;49.432;8.680;2024-02-28T05:59:27;18.53;;;10.73;;
10230;SDS011;62604;49.432;8.680;2024-02-28T06:01:54;17.67;;;10.97;;
10230;SDS011;62604;49.432;8.680;2024-02-28T06:04:21;16.63;;;10.03;;
10230;SDS011;62604;49.432;8.680;2024-02-28T06:06:49;22.77;;;10.70;;
10230;SDS011;62604;49.432;8.680;2024-02-28T06:09:17;21.20;;;11.73;;
10230;SDS011;62604;49.432;8.680;2024-02-28T06:11:44;20.23;;;10.13;;
10230;SDS011;62604;49.432;8.680;2024-02-28T06:14:11;20.50;;;9.53;;
10230;SDS011;62604;49.432;8.680;2024-02-28T06:16:38;16.93;;;8.83;;
10230;SDS011;62604;49.432;8.680;2024-02-28T06:19:05;14.33;;;8.53;;
10230;SDS011;62604;49.432;8.680;2024-02-28T06:21:32;13.17;;;7.80;;
10230;SDS011;62604;49.432;8.680;2024-02-28T06:24:02;14.50;;;9.60;;
10230;SDS011;62604;49.432;8.680;2024-02-28T06:26:30;14.60;;;8.43;;
10230;SDS011;62604;49.432;8.680;2024-02-28T06:28:57;16.40;;;9.67;;
10230;SDS011;62604;49.432;8.680;2024-02-28T06:31:29;15.90;;;8.80;;
10230;SDS011;62604;49.432;8.680;2024-02-28T06:34:00;17.93;;;10.43;;
10230;SDS011;62604;49.432;8.680;2024-02-28T06:36:31;13.90;;;8.47;;
10230;SDS011;62604;49.432;8.680;2024-02-28T06:38:58;12.27;;;7.93;;
10230;SDS011;62604;49.432;8.680;2024-02-28T06:41:39;12.07;;;8.27;;
10230;SDS011;62604;49.432;8.680;2024-02-28T06:44:12;15.57;;;8.70;;
10230;SDS011;62604;49.432;8.680;2024-02-28T06:46:43;15.37;;;8.93;;
10230;SDS011;62604;49.432;8.680;2024-02-28T06:49:11;13.97;;;7.73;;
10230;SDS011;62604;49.432;8.680;2024-02-28T06:51:38;13.40;;;7.73;;
10230;SDS011;62604;49.432;8.680;2024-02-28T06:54:07;11.17;;;7.07;;
10230;SDS011;62604;49.432;8.680;2024-02-28T06:56:38;14.30;;;9.40;;
10230;SDS011;62604;49.432;8.680;2024-02-28T06:59:05;16.10;;;8.80;;
10230;SDS011;62604;49.432;8.680;2024-02-28T07:01:33;19.30;;;10.00;;
10230;SDS011;62604;49.432;8.680;2024-02-28T07:04:00;16.20;;;9.40;;
10230;SDS011;62604;49.432;8.680;2024-02-28T07:06:28;14.97;;;9.17;;
10230;SDS011;62604;49.432;8.680;2024-02-28T07:08:55;17.77;;;9.43;;
10230;SDS011;62604;49.432;8.680;2024-02-28T07:11:22;15.57;;;9.70;;
10230;SDS011;62604;49.432;8.680;2024-02-28T07:13:51;16.97;;;10.33;;
10230;SDS011;62604;49.432;8.680;2024-02-28T07:16:20;15.70;;;10.07;;
10230;SDS011;62604;49.432;8.680;2024-02-28T07:18:48;14.57;;;8.73;;
10230;SDS011;62604;49.432;8.680;2024-02-28T07:21:19;14.20;;;9.83;;
10230;SDS011;62604;49.432;8.680;2024-02-28T07:23:48;18.27;;;10.13;;
10230;SDS011;62604;49.432;8.680;2024-02-28T07:26:16;23.23;;;12.63;;
10230;SDS011;62604;49.432;8.680;2024-02-28T07:28:44;24.83;;;12.43;;
10230;SDS011;62604;49.432;8.680;2024-02-28T07:31:20;27.93;;;12.90;;
10230;SDS011;62604;49.432;8.680;2024-02-28T07:33:51;24.73;;;12.83;;
10230;SDS011;62604;49.432;8.680;2024-02-28T07:36:25;21.00;;;11.37;;
10230;SDS011;62604;49.432;8.680;2024-02-28T07:38:55;18.30;;;11.07;;
10230;SDS011;62604;49.432;8.680;2024-02-28T07:41:23;19.57;;;11.30;;
10230;SDS011;62604;49.432;8.680;2024-02-28T07:43:50;17.93;;;11.00;;
10230;SDS011;62604;49.432;8.680;2024-02-28T07:46:24;20.83;;;11.57;;
10230;SDS011;62604;49.432;8.680;2024-02-28T07:48:53;16.90;;;10.83;;
10230;SDS011;62604;49.432;8.680;2024-02-28T07:51:23;21.07;;;11.10;;
10230;SDS011;62604;49.432;8.680;2024-02-28T07:53:51;22.73;;;10.63;;
10230;SDS011;62604;49.432;8.680;2024-02-28T07:56:20;18.20;;;10.63;;
10230;SDS011;62604;49.432;8.680;2024-02-28T07:58:49;18.60;;;11.10;;
10230;SDS011;62604;49.432;8.680;2024-02-28T08:01:21;19.33;;;10.87;;
10230;SDS011;62604;49.432;8.680;2024-02-28T08:03:50;17.03;;;10.40;;
10230;SDS011;62604;49.432;8.680;2024-02-28T08:06:21;17.07;;;11.10;;
10230;SDS011;62604;49.432;8.680;2024-02-28T08:08:48;18.07;;;11.17;;
10230;SDS011;62604;49.432;8.680;2024-02-28T08:11:17;13.67;;;9.87;;
10230;SDS011;62604;49.432;8.680;2024-02-28T08:13:44;20.40;;;11.57;;
10230;SDS011;62604;49.432;8.680;2024-02-28T08:16:12;20.67;;;11.47;;
10230;SDS011;62604;49.432;8.680;2024-02-28T08:18:47;14.73;;;9.60;;
10230;SDS011;62604;49.432;8.680;2024-02-28T08:21:14;16.67;;;10.63;;
10230;SDS011;62604;49.432;8.680;2024-02-28T08:23:44;17.83;;;10.57;;
10230;SDS011;62604;49.432;8.680;2024-02-28T08:26:14;17.47;;;10.73;;
10230;SDS011;62604;49.432;8.680;2024-02-28T08:28:42;17.37;;;10.60;;
10230;SDS011;62604;49.432;8.680;2024-02-28T08:31:10;18.33;;;10.53;;
10230;SDS011;62604;49.432;8.680;2024-02-28T08:33:37;14.27;;;9.77;;
10230;SDS011;62604;49.432;8.680;2024-02-28T08:36:06;16.30;;;10.73;;
10230;SDS011;62604;49.432;8.680;2024-02-28T08:38:34;14.63;;;10.40;;
10230;SDS011;62604;49.432;8.680;2024-02-28T08:41:05;17.37;;;10.37;;
10230;SDS011;62604;49.432;8.680;2024-02-28T08:43:32;17.87;;;10.63;;
10230;SDS011;62604;49.432;8.680;2024-02-28T08:46:00;16.63;;;10.83;;
10230;SDS011;62604;49.432;8.680;2024-02-28T08:48:27;17.73;;;11.07;;
10230;SDS011;62604;49.432;8.680;2024-02-28T08:50:57;16.83;;;11.20;;
10230;SDS011;62604;49.432;8.680;2024-02-28T08:56:06;18.43;;;11.17;;
10230;SDS011;62604;49.432;8.680;2024-02-28T08:58:33;18.13;;;12.10;;
10230;SDS011;62604;49.432;8.680;2024-02-28T09:01:02;18.53;;;11.67;;
10230;SDS011;62604;49.432;8.680;2024-02-28T09:03:32;20.27;;;12.37;;
10230;SDS011;62604;49.432;8.680;2024-02-28T09:06:00;15.97;;;11.10;;
10230;SDS011;62604;49.432;8.680;2024-02-28T09:08:28;19.77;;;12.10;;
10230;SDS011;62604;49.432;8.680;2024-02-28T09:11:01;17.83;;;11.63;;
10230;SDS011;62604;49.432;8.680;2024-02-28T09:13:31;17.67;;;11.87;;
10230;SDS011;62604;49.432;8.680;2024-02-28T09:16:13;15.83;;;11.13;;
10230;SDS011;62604;49.432;8.680;2024-02-28T09:18:43;14.13;;;10.33;;
10230;SDS011;62604;49.432;8.680;2024-02-28T09:21:13;18.10;;;10.23;;
10230;SDS011;62604;49.432;8.680;2024-02-28T09:23:41;17.33;;;10.43;;
10230;SDS011;62604;49.432;8.680;2024-02-28T09:26:14;14.47;;;10.20;;
10230;SDS011;62604;49.432;8.680;2024-02-28T09:28:42;16.77;;;10.20;;
10230;SDS011;62604;49.432;8.680;2024-02-28T09:31:11;18.03;;;11.63;;
10230;SDS011;62604;49.432;8.680;2024-02-28T09:33:41;16.20;;;10.43;;
10230;SDS011;62604;49.432;8.680;2024-02-28T09:36:08;16.63;;;10.50;;
10230;SDS011;62604;49.432;8.680;2024-02-28T09:38:35;17.63;;;10.60;;
10230;SDS011;62604;49.432;8.680;2024-02-28T09:41:06;13.77;;;9.23;;
10230;SDS011;62604;49.432;8.680;2024-02-28T09:43:36;13.93;;;9.23;;
10230;SDS011;62604;49.432;8.680;2024-02-28T09:46:07;14.90;;;10.10;;
10230;SDS011;62604;49.432;8.680;2024-02-28T09:48:38;14.20;;;9.95;;
10230;SDS011;62604;49.432;8.680;2024-02-28T09:51:10;14.20;;;9.83;;
10230;SDS011;62604;49.432;8.680;2024-02-28T09:53:45;15.85;;;10.70;;
10230;SDS011;62604;49.432;8.680;2024-02-28T09:56:17;15.57;;;9.88;;
10230;SDS011;62604;49.432;8.680;2024-02-28T09:58:45;12.70;;;9.23;;
10230;SDS011;62604;49.432;8.680;2024-02-28T10:01:15;13.55;;;10.20;;
10230;SDS011;62604;49.432;8.680;2024-02-28T10:03:46;14.15;;;10.60;;
10230;SDS011;62604;49.432;8.680;2024-02-28T10:06:17;14.13;;;10.00;;
10230;SDS011;62604;49.432;8.680;2024-02-28T10:08:44;14.60;;;10.60;;
10230;SDS011;62604;49.432;8.680;2024-02-28T10:11:17;13.98;;;9.25;;
10230;SDS011;62604;49.432;8.680;2024-02-28T10:13:47;13.68;;;9.77;;
10230;SDS011;62604;49.432;8.680;2024-02-28T10:16:16;13.80;;;9.20;;
10230;SDS011;62604;49.432;8.680;2024-02-28T10:18:43;15.95;;;10.57;;
10230;SDS011;62604;49.432;8.680;2024-02-28T10:21:10;17.30;;;10.15;;
10230;SDS011;62604;49.432;8.680;2024-02-28T10:23:42;15.43;;;10.57;;
10230;SDS011;62604;49.432;8.680;2024-02-28T10:26:10;14.45;;;10.93;;
10230;SDS011;62604;49.432;8.680;2024-02-28T10:28:41;15.25;;;11.35;;
10230;SDS011;62604;49.432;8.680;2024-02-28T10:31:14;15.80;;;11.25;;
10230;SDS011;62604;49.432;8.680;2024-02-28T10:33:46;15.45;;;10.15;;
10230;SDS011;62604;49.432;8.680;2024-02-28T10:36:16;17.08;;;11.02;;
10230;SDS011;62604;49.432;8.680;2024-02-28T10:38:46;15.40;;;11.00;;
10230;SDS011;62604;49.432;8.680;2024-02-28T10:41:15;15.65;;;11.25;;
10230;SDS011;62604;49.432;8.680;2024-02-28T10:44:01;14.93;;;11.02;;
10230;SDS011;62604;49.432;8.680;2024-02-28T10:46:30;17.75;;;11.40;;
10230;SDS011;62604;49.432;8.680;2024-02-28T10:48:57;17.08;;;10.90;;
10230;SDS011;62604;49.432;8.680;2024-02-28T10:51:24;14.38;;;10.55;;
10230;SDS011;62604;49.432;8.680;2024-02-28T10:53:56;15.52;;;10.68;;
10230;SDS011;62604;49.432;8.680;2024-02-28T10:56:29;13.77;;;9.68;;
10230;SDS011;62604;49.432;8.680;2024-02-28T10:58:57;16.08;;;10.77;;
10230;SDS011;62604;49.432;8.680;2024-02-28T11:01:25;17.45;;;10.75;;
10230;SDS011;62604;49.432;8.680;2024-02-28T11:03:55;17.20;;;11.13;;
10230;SDS011;62604;49.432;8.680;2024-02-28T11:06:22;15.15;;;9.85;;
10230;SDS011;62604;49.432;8.680;2024-02-28T11:08:51;16.88;;;11.15;;
10230;SDS011;62604;49.432;8.680;2024-02-28T11:11:19;14.85;;;10.32;;
10230;SDS011;62604;49.432;8.680;2024-02-28T11:13:53;13.90;;;8.98;;
10230;SDS011;62604;49.432;8.680;2024-02-28T11:16:28;16.20;;;10.25;;
10230;SDS011;62604;49.432;8.680;2024-02-28T11:18:58;15.60;;;9.63;;
10230;SDS011;62604;49.432;8.680;2024-02-28T11:21:26;16.65;;;10.23;;
10230;SDS011;62604;49.432;8.680;2024-02-28T11:23:57;11.50;;;8.55;;
10230;SDS011;62604;49.432;8.680;2024-02-28T11:26:24;13.15;;;9.77;;
10230;SDS011;62604;49.432;8.680;2024-02-28T11:28:52;9.90;;;7.10;;
10230;SDS011;62604;49.432;8.680;2024-02-28T11:31:20;9.48;;;7.97;;
10230;SDS011;62604;49.432;8.680;2024-02-28T11:33:47;11.73;;;9.57;;
10230;SDS011;62604;49.432;8.680;2024-02-28T11:36:16;12.98;;;9.32;;
10230;SDS011;62604;49.432;8.680;2024-02-28T11:38:43;11.70;;;9.18;;
10230;SDS011;62604;49.432;8.680;2024-02-28T11:41:11;15.32;;;9.75;;
10230;SDS011;62604;49.432;8.680;2024-02-28T11:43:38;10.60;;;8.15;;
10230;SDS011;62604;49.432;8.680;2024-02-28T11:46:07;8.30;;;7.38;;
10230;SDS011;62604;49.432;8.680;2024-02-28T11:48:36;7.53;;;6.28;;
10230;SDS011;62604;49.432;8.680;2024-02-28T11:51:03;13.15;;;9.00;;
10230;SDS011;62604;49.432;8.680;2024-02-28T11:53:32;13.32;;;7.25;;
10230;SDS011;62604;49.432;8.680;2024-02-28T11:55:59;13.20;;;9.00;;
10230;SDS011;62604;49.432;8.680;2024-02-28T11:58:26;12.45;;;9.15;;
10230;SDS011;62604;49.432;8.680;2024-02-28T12:00:53;14.02;;;9.80;;
10230;SDS011;62604;49.432;8.680;2024-02-28T12:03:20;14.90;;;10.48;;
10230;SDS011;62604;49.432;8.680;2024-02-28T12:05:48;12.10;;;8.68;;
10230;SDS011;62604;49.432;8.680;2024-02-28T12:08:16;11.80;;;9.43;;
10230;SDS011;62604;49.432;8.680;2024-02-28T12:10:46;15.82;;;9.88;;
10230;SDS011;62604;49.432;8.680;2024-02-28T12:13:17;10.65;;;8.45;;
10230;SDS011;62604;49.432;8.680;2024-02-28T12:15:44;10.55;;;8.38;;
10230;SDS011;62604;49.432;8.680;2024-02-28T12:18:14;11.15;;;8.15;;
10230;SDS011;62604;49.432;8.680;2024-02-28T12:20:41;10.63;;;8.13;;
10230;SDS011;62604;49.432;8.680;2024-02-28T12:23:10;11.70;;;9.25;;
10230;SDS011;62604;49.432;8.680;2024-02-28T12:25:37;10.75;;;8.60;;
10230;SDS011;62604;49.432;8.680;2024-02-28T12:28:06;12.07;;;9.13;;
10230;SDS011;62604;49.432;8.680;2024-02-28T12:30:38;12.43;;;9.55;;
10230;SDS011;62604;49.432;8.680;2024-02-28T12:33:07;12.23;;;9.35;;
10230;SDS011;62604;49.432;8.680;2024-02-28T12:35:34;10.75;;;7.97;;
10230;SDS011;62604;49.432;8.680;2024-02-28T12:38:02;11.18;;;8.40;;
10230;SDS011;62604;49.432;8.680;2024-02-28T12:40:29;12.68;;;9.50;;
10230;SDS011;62604;49.432;8.680;2024-02-28T12:42:56;9.38;;;8.27;;
10230;SDS011;62604;49.432;8.680;2024-02-28T12:45:25;10.65;;;8.25;;
10230;SDS011;62604;49.432;8.680;2024-02-28T12:47:52;11.52;;;8.73;;
10230;SDS011;62604;49.432;8.680;2024-02-28T12:50:22;12.55;;;9.60;;
10230;SDS011;62604;49.432;8.680;2024-02-28T12:52:49;11.82;;;9.20;;
10230;SDS011;62604;49.432;8.680;2024-02-28T12:55:18;12.52;;;9.27;;
10230;SDS011;62604;49.432;8.680;2024-02-28T12:57:46;10.38;;;8.88;;
10230;SDS011;62604;49.432;8.680;2024-02-28T13:00:14;12.02;;;9.30;;
10230;SDS011;62604;49.432;8.680;2024-02-28T13:02:43;10.93;;;8.85;;
10230;SDS011;62604;49.432;8.680;2024-02-28T13:05:11;12.25;;;9.25;;
10230;SDS011;62604;49.432;8.680;2024-02-28T13:07:39;13.05;;;9.45;;
10230;SDS011;62604;49.432;8.680;2024-02-28T13:10:06;13.20;;;9.23;;
10230;SDS011;62604;49.432;8.680;2024-02-28T13:12:34;13.32;;;9.75;;
10230;SDS011;62604;49.432;8.680;2024-02-28T13:15:01;13.50;;;9.77;;
10230;SDS011;62604;49.432;8.680;2024-02-28T13:17:30;16.90;;;10.80;;
10230;SDS011;62604;49.432;8.680;2024-02-28T13:19:59;15.07;;;9.75;;
10230;SDS011;62604;49.432;8.680;2024-02-28T13:22:26;15.15;;;9.48;;
10230;SDS011;62604;49.432;8.680;2024-02-28T13:24:53;13.13;;;8.90;;
10230;SDS011;62604;49.432;8.680;2024-02-28T13:27:20;12.63;;;9.52;;
10230;SDS011;62604;49.432;8.680;2024-02-28T13:29:47;13.10;;;9.25;;
10230;SDS011;62604;49.432;8.680;2024-02-28T13:32:14;16.23;;;9.80;;
10230;SDS011;62604;49.432;8.680;2024-02-28T13:34:42;11.32;;;8.85;;
10230;SDS011;62604;49.432;8.680;2024-02-28T13:37:11;15.30;;;9.07;;
10230;SDS011;62604;49.432;8.680;2024-02-28T13:39:40;16.55;;;10.43;;
10230;SDS011;62604;49.432;8.680;2024-02-28T13:42:08;10.90;;;8.88;;
10230;SDS011;62604;49.432;8.680;2024-02-28T13:44:39;17.95;;;10.38;;
10230;SDS011;62604;49.432;8.680;2024-02-28T13:47:08;11.88;;;8.82;;
10230;SDS011;62604;49.432;8.680;2024-02-28T13:49:39;13.60;;;9.30;;
10230;SDS011;62604;49.432;8.680;2024-02-28T13:52:21;15.25;;;9.65;;
10230;SDS011;62604;49.432;8.680;2024-02-28T13:54:48;16.00;;;9.57;;
10230;SDS011;62604;49.432;8.680;2024-02-28T13:57:20;13.30;;;9.05;;
10230;SDS011;62604;49.432;8.680;2024-02-28T13:59:47;13.27;;;8.73;;
10230;SDS011;62604;49.432;8.680;2024-02-28T14:02:16;11.33;;;8.33;;
10230;SDS011;62604;49.432;8.680;2024-02-28T14:04:43;14.63;;;8.97;;
10230;SDS011;62604;49.432;8.680;2024-02-28T14:07:13;15.50;;;9.73;;
10230;SDS011;62604;49.432;8.680;2024-02-28T14:09:46;14.77;;;8.97;;
10230;SDS011;62604;49.432;8.680;2024-02-28T14:12:13;12.90;;;9.17;;
10230;SDS011;62604;49.432;8.680;2024-02-28T14:14:40;15.57;;;8.83;;
10230;SDS011;62604;49.432;8.680;2024-02-28T14:17:08;19.33;;;9.60;;
10230;SDS011;62604;49.432;8.680;2024-02-28T14:19:35;15.03;;;9.67;;
10230;SDS011;62604;49.432;8.680;2024-02-28T14:22:03;14.13;;;9.63;;
10230;SDS011;62604;49.432;8.680;2024-02-28T14:24:30;14.77;;;9.03;;
10230;SDS011;62604;49.432;8.680;2024-02-28T14:26:58;13.67;;;9.10;;
10230;SDS011;62604;49.432;8.680;2024-02-28T14:29:25;13.73;;;8.73;;
10230;SDS011;62604;49.432;8.680;2024-02-28T14:31:54;18.40;;;9.93;;
10230;SDS011;62604;49.432;8.680;2024-02-28T14:34:21;11.10;;;8.93;;
10230;SDS011;62604;49.432;8.680;2024-02-28T14:36:48;14.03;;;8.87;;
10230;SDS011;62604;49.432;8.680;2024-02-28T14:39:16;16.80;;;10.80;;
10230;SDS011;62604;49.432;8.680;2024-02-28T14:41:43;14.97;;;8.93;;